Airfield :
LOGIN :

Register | Disclaimer

   EN    FR    IT 

 










Legend :    VFR   Marginal VFR   IFR   Intensive IFR   Very Intensive IFR
Visi :
Ceiling :
>= 8 km
>= 3000ft
5 to 8 km
1000 to 3000 ft
1500m to 5 km
500 to 1000 ft
800 to 1500m
200 to 500 ft
< 800m
< 200 ft
Symbols :   Thunderstorms  Fog  Heavy snow  Heavy precipitations  Wind > 20 kt
SIGMETs :     Misc.  Thunderstorms  Icing  Turbulence  Mountain Waves  Volcanic Ashes







- Airport Elevation : 72 ft
- IATA code : UDE


EHVK - Volkel Airbase

CURRENT METAR :
  • 212025Z AUTO 08006KT 050V110 9999 OVC017 03/01 Q1019 WHT

EXPIRED METARs :
  • 211955Z AUTO 07007KT 9999 OVC019 03/01 Q1019 WHT
  • 211925Z AUTO 07007KT 9999 OVC020 03/01 Q1019 WHT
  • 211855Z AUTO 07007KT 9999 OVC020 03/01 Q1019 WHT
  • 211838Z AUTO 07008KT 060V120 9999 BKN021 OVC095 03/01 Q1018 WHT
  • 211825Z AUTO 07009KT 9999 SCT095 OVC100 03/01 Q1018 BLU
  • 211755Z AUTO 07010KT 050V110 9999 BKN094 OVC100 03/01 Q1018 BLU

TAF TAF EHVK
Valid from the 21 at 10:00 until the 21 at 22:00 UTC


210934Z 2110/2122 08008KT CAVOK
No reported NOTAMs for that airfield.



MET'MAP, your aeronautical weather chart ! - Copyright ORBIFLY December 2007 - Disclaimer

ORBIFLY MET'MAP TEAM :

Programming & Development : Alexandra Zaïnal
Concept & Development : Baudouin d'Aumeries
Co-Development & Prog : Marc-Olivier Méhu
Technical & hardware support : Manuel Goepfert

Contact : metmap@orbifly.com




SOURCES & CREDITS :

   NOAA